sensor_id;sensor_type;location;lat;lon;timestamp;P1;durP1;ratioP1;P2;durP2;ratioP2
15820;SDS011;8011;51.650;7.240;2022-10-16T03:02:11;1.73;;;1.53;;
15820;SDS011;8011;51.650;7.240;2022-10-16T03:04:37;1.60;;;1.50;;
15820;SDS011;8011;51.650;7.240;2022-10-16T03:07:03;2.70;;;1.80;;
15820;SDS011;8011;51.650;7.240;2022-10-16T03:09:29;1.70;;;1.60;;
15820;SDS011;8011;51.650;7.240;2022-10-16T03:11:55;3.00;;;1.93;;
15820;SDS011;8011;51.650;7.240;2022-10-16T03:14:20;1.93;;;1.70;;
15820;SDS011;8011;51.650;7.240;2022-10-16T03:16:46;2.00;;;1.70;;
15820;SDS011;8011;51.650;7.240;2022-10-16T03:19:15;2.97;;;1.80;;
15820;SDS011;8011;51.650;7.240;2022-10-16T03:21:41;3.93;;;1.80;;
15820;SDS011;8011;51.650;7.240;2022-10-16T03:24:07;1.60;;;1.50;;
15820;SDS011;8011;51.650;7.240;2022-10-16T03:26:33;3.53;;;1.80;;
15820;SDS011;8011;51.650;7.240;2022-10-16T03:28:58;4.37;;;1.50;;
15820;SDS011;8011;51.650;7.240;2022-10-16T03:31:24;1.83;;;1.70;;
15820;SDS011;8011;51.650;7.240;2022-10-16T03:33:49;3.30;;;1.80;;
15820;SDS011;8011;51.650;7.240;2022-10-16T03:36:15;3.13;;;1.60;;
15820;SDS011;8011;51.650;7.240;2022-10-16T03:38:41;2.40;;;1.60;;
15820;SDS011;8011;51.650;7.240;2022-10-16T03:41:06;1.60;;;1.43;;
15820;SDS011;8011;51.650;7.240;2022-10-16T03:43:32;3.33;;;1.80;;
15820;SDS011;8011;51.650;7.240;2022-10-16T03:45:58;4.57;;;1.77;;
15820;SDS011;8011;51.650;7.240;2022-10-16T03:48:24;3.40;;;1.90;;
15820;SDS011;8011;51.650;7.240;2022-10-16T03:50:49;1.47;;;1.33;;
15820;SDS011;8011;51.650;7.240;2022-10-16T03:53:16;1.83;;;1.73;;
15820;SDS011;8011;51.650;7.240;2022-10-16T03:55:42;2.70;;;1.50;;
15820;SDS011;8011;51.650;7.240;2022-10-16T03:58:08;1.50;;;1.40;;
15820;SDS011;8011;51.650;7.240;2022-10-16T04:00:34;2.83;;;1.50;;
15820;SDS011;8011;51.650;7.240;2022-10-16T04:02:59;2.33;;;1.57;;
15820;SDS011;8011;51.650;7.240;2022-10-16T04:05:25;1.40;;;1.23;;
15820;SDS011;8011;51.650;7.240;2022-10-16T04:07:51;1.60;;;1.23;;
15820;SDS011;8011;51.650;7.240;2022-10-16T04:10:17;1.77;;;1.40;;
15820;SDS011;8011;51.650;7.240;2022-10-16T04:12:44;1.90;;;1.27;;
15820;SDS011;8011;51.650;7.240;2022-10-16T04:15:09;1.93;;;1.30;;
15820;SDS011;8011;51.650;7.240;2022-10-16T04:17:35;1.83;;;1.20;;
15820;SDS011;8011;51.650;7.240;2022-10-16T04:20:01;1.17;;;1.07;;
15820;SDS011;8011;51.650;7.240;2022-10-16T04:22:27;3.23;;;1.60;;
15820;SDS011;8011;51.650;7.240;2022-10-16T04:24:53;1.27;;;1.07;;
15820;SDS011;8011;51.650;7.240;2022-10-16T04:27:19;1.37;;;1.17;;
15820;SDS011;8011;51.650;7.240;2022-10-16T04:29:44;2.07;;;1.10;;
15820;SDS011;8011;51.650;7.240;2022-10-16T04:32:10;1.63;;;1.20;;
15820;SDS011;8011;51.650;7.240;2022-10-16T04:34:36;1.10;;;1.00;;
15820;SDS011;8011;51.650;7.240;2022-10-16T04:37:04;1.27;;;1.17;;
15820;SDS011;8011;51.650;7.240;2022-10-16T04:39:30;2.10;;;1.20;;
15820;SDS011;8011;51.650;7.240;2022-10-16T04:41:55;4.30;;;1.43;;
15820;SDS011;8011;51.650;7.240;2022-10-16T04:44:21;1.07;;;0.97;;
15820;SDS011;8011;51.650;7.240;2022-10-16T04:46:47;1.93;;;1.20;;
15820;SDS011;8011;51.650;7.240;2022-10-16T04:49:14;2.17;;;0.93;;
15820;SDS011;8011;51.650;7.240;2022-10-16T04:51:40;1.37;;;1.13;;
15820;SDS011;8011;51.650;7.240;2022-10-16T04:54:06;1.20;;;1.10;;
15820;SDS011;8011;51.650;7.240;2022-10-16T04:56:31;2.40;;;1.20;;
15820;SDS011;8011;51.650;7.240;2022-10-16T04:58:57;2.53;;;1.13;;
15820;SDS011;8011;51.650;7.240;2022-10-16T05:01:23;1.50;;;1.40;;
15820;SDS011;8011;51.650;7.240;2022-10-16T05:03:48;1.43;;;1.33;;
15820;SDS011;8011;51.650;7.240;2022-10-16T05:06:14;2.33;;;1.30;;
15820;SDS011;8011;51.650;7.240;2022-10-16T05:08:39;3.13;;;1.10;;
15820;SDS011;8011;51.650;7.240;2022-10-16T05:11:05;1.40;;;1.30;;
15820;SDS011;8011;51.650;7.240;2022-10-16T05:13:31;1.57;;;1.20;;
15820;SDS011;8011;51.650;7.240;2022-10-16T05:15:56;1.33;;;1.20;;
15820;SDS011;8011;51.650;7.240;2022-10-16T05:18:22;2.37;;;1.23;;
15820;SDS011;8011;51.650;7.240;2022-10-16T05:20:47;1.00;;;1.00;;
15820;SDS011;8011;51.650;7.240;2022-10-16T05:23:13;1.53;;;1.23;;
15820;SDS011;8011;51.650;7.240;2022-10-16T05:25:39;1.20;;;1.10;;
15820;SDS011;8011;51.650;7.240;2022-10-16T05:28:04;1.50;;;1.20;;
15820;SDS011;8011;51.650;7.240;2022-10-16T05:30:30;1.77;;;1.30;;
15820;SDS011;8011;51.650;7.240;2022-10-16T05:32:56;2.50;;;1.10;;
15820;SDS011;8011;51.650;7.240;2022-10-16T05:35:21;2.43;;;1.30;;
15820;SDS011;8011;51.650;7.240;2022-10-16T05:37:47;3.37;;;1.47;;
15820;SDS011;8011;51.650;7.240;2022-10-16T05:40:13;3.43;;;1.30;;
15820;SDS011;8011;51.650;7.240;2022-10-16T05:42:39;2.07;;;1.40;;
15820;SDS011;8011;51.650;7.240;2022-10-16T05:45:06;1.40;;;1.20;;
15820;SDS011;8011;51.650;7.240;2022-10-16T05:47:34;1.37;;;1.27;;
15820;SDS011;8011;51.650;7.240;2022-10-16T05:49:59;1.40;;;1.20;;
15820;SDS011;8011;51.650;7.240;2022-10-16T05:52:26;1.70;;;1.20;;
15820;SDS011;8011;51.650;7.240;2022-10-16T05:54:52;1.00;;;0.90;;
15820;SDS011;8011;51.650;7.240;2022-10-16T05:57:18;1.30;;;1.20;;
15820;SDS011;8011;51.650;7.240;2022-10-16T05:59:43;2.40;;;1.03;;
15820;SDS011;8011;51.650;7.240;2022-10-16T06:02:12;1.13;;;1.00;;
15820;SDS011;8011;51.650;7.240;2022-10-16T06:04:38;1.70;;;1.10;;
15820;SDS011;8011;51.650;7.240;2022-10-16T06:07:04;1.60;;;1.17;;
15820;SDS011;8011;51.650;7.240;2022-10-16T06:09:30;2.43;;;1.10;;
15820;SDS011;8011;51.650;7.240;2022-10-16T06:11:56;1.27;;;1.17;;
15820;SDS011;8011;51.650;7.240;2022-10-16T06:14:21;1.70;;;1.20;;
15820;SDS011;8011;51.650;7.240;2022-10-16T06:16:47;2.87;;;1.10;;
15820;SDS011;8011;51.650;7.240;2022-10-16T06:19:12;1.90;;;1.23;;
15820;SDS011;8011;51.650;7.240;2022-10-16T06:21:38;1.53;;;1.03;;
15820;SDS011;8011;51.650;7.240;2022-10-16T06:24:04;1.77;;;1.07;;
15820;SDS011;8011;51.650;7.240;2022-10-16T06:26:30;2.40;;;1.13;;
15820;SDS011;8011;51.650;7.240;2022-10-16T06:28:57;1.30;;;1.20;;
15820;SDS011;8011;51.650;7.240;2022-10-16T06:31:24;1.20;;;1.00;;
15820;SDS011;8011;51.650;7.240;2022-10-16T06:33:55;3.13;;;1.20;;
15820;SDS011;8011;51.650;7.240;2022-10-16T06:36:21;2.63;;;1.00;;
15820;SDS011;8011;51.650;7.240;2022-10-16T06:38:47;1.37;;;1.27;;
15820;SDS011;8011;51.650;7.240;2022-10-16T06:41:14;1.73;;;1.27;;
15820;SDS011;8011;51.650;7.240;2022-10-16T06:43:42;1.83;;;1.30;;
15820;SDS011;8011;51.650;7.240;2022-10-16T06:46:10;1.30;;;1.20;;
15820;SDS011;8011;51.650;7.240;2022-10-16T06:48:36;1.40;;;1.30;;
15820;SDS011;8011;51.650;7.240;2022-10-16T06:53:30;1.80;;;1.10;;
15820;SDS011;8011;51.650;7.240;2022-10-16T06:56:05;2.93;;;1.10;;
15820;SDS011;8011;51.650;7.240;2022-10-16T06:58:35;2.60;;;1.40;;
15820;SDS011;8011;51.650;7.240;2022-10-16T07:01:01;1.27;;;1.13;;
15820;SDS011;8011;51.650;7.240;2022-10-16T07:03:26;1.60;;;1.10;;
15820;SDS011;8011;51.650;7.240;2022-10-16T07:05:52;3.43;;;1.50;;
15820;SDS011;8011;51.650;7.240;2022-10-16T07:08:18;2.37;;;1.50;;
15820;SDS011;8011;51.650;7.240;2022-10-16T07:10:43;1.27;;;1.10;;
15820;SDS011;8011;51.650;7.240;2022-10-16T07:13:09;2.37;;;1.27;;
15820;SDS011;8011;51.650;7.240;2022-10-16T07:15:38;2.40;;;1.40;;
15820;SDS011;8011;51.650;7.240;2022-10-16T07:18:03;2.50;;;1.40;;
15820;SDS011;8011;51.650;7.240;2022-10-16T07:20:29;2.67;;;1.43;;
15820;SDS011;8011;51.650;7.240;2022-10-16T07:22:55;1.47;;;1.30;;
15820;SDS011;8011;51.650;7.240;2022-10-16T07:25:20;2.10;;;1.57;;
15820;SDS011;8011;51.650;7.240;2022-10-16T07:27:46;1.83;;;1.13;;
15820;SDS011;8011;51.650;7.240;2022-10-16T07:30:12;1.30;;;1.20;;
15820;SDS011;8011;51.650;7.240;2022-10-16T07:32:37;2.30;;;1.63;;
15820;SDS011;8011;51.650;7.240;2022-10-16T07:35:03;1.80;;;1.57;;
15820;SDS011;8011;51.650;7.240;2022-10-16T07:37:30;1.50;;;1.40;;
15820;SDS011;8011;51.650;7.240;2022-10-16T07:39:55;1.80;;;1.37;;
15820;SDS011;8011;51.650;7.240;2022-10-16T07:42:21;1.67;;;1.57;;
15820;SDS011;8011;51.650;7.240;2022-10-16T07:44:46;2.80;;;1.50;;
15820;SDS011;8011;51.650;7.240;2022-10-16T07:47:12;1.70;;;1.40;;
15820;SDS011;8011;51.650;7.240;2022-10-16T07:49:38;1.50;;;1.40;;
15820;SDS011;8011;51.650;7.240;2022-10-16T07:52:04;1.53;;;1.40;;
15820;SDS011;8011;51.650;7.240;2022-10-16T07:54:29;3.37;;;1.60;;
15820;SDS011;8011;51.650;7.240;2022-10-16T07:56:55;1.83;;;1.60;;
15820;SDS011;8011;51.650;7.240;2022-10-16T07:59:21;4.13;;;1.67;;
15820;SDS011;8011;51.650;7.240;2022-10-16T08:01:46;3.37;;;2.00;;
15820;SDS011;8011;51.650;7.240;2022-10-16T08:04:14;1.73;;;1.63;;
15820;SDS011;8011;51.650;7.240;2022-10-16T08:06:40;2.33;;;1.43;;
15820;SDS011;8011;51.650;7.240;2022-10-16T08:09:06;1.97;;;1.57;;
15820;SDS011;8011;51.650;7.240;2022-10-16T08:11:36;3.40;;;1.50;;
15820;SDS011;8011;51.650;7.240;2022-10-16T08:14:01;2.80;;;1.77;;
15820;SDS011;8011;51.650;7.240;2022-10-16T08:16:27;1.60;;;1.47;;
15820;SDS011;8011;51.650;7.240;2022-10-16T08:18:53;4.23;;;1.40;;
15820;SDS011;8011;51.650;7.240;2022-10-16T08:21:20;2.30;;;1.40;;
15820;SDS011;8011;51.650;7.240;2022-10-16T08:23:48;1.50;;;1.40;;
15820;SDS011;8011;51.650;7.240;2022-10-16T08:26:14;3.07;;;1.53;;
15820;SDS011;8011;51.650;7.240;2022-10-16T08:28:40;3.50;;;1.30;;
15820;SDS011;8011;51.650;7.240;2022-10-16T08:31:10;2.00;;;1.50;;
15820;SDS011;8011;51.650;7.240;2022-10-16T08:33:38;1.63;;;1.23;;
15820;SDS011;8011;51.650;7.240;2022-10-16T08:36:05;1.70;;;1.23;;
15820;SDS011;8011;51.650;7.240;2022-10-16T08:38:31;2.50;;;1.40;;
15820;SDS011;8011;51.650;7.240;2022-10-16T08:43:43;1.60;;;1.20;;
15820;SDS011;8011;51.650;7.240;2022-10-16T08:46:31;1.20;;;1.10;;
15820;SDS011;8011;51.650;7.240;2022-10-16T08:49:05;2.17;;;1.13;;
15820;SDS011;8011;51.650;7.240;2022-10-16T08:51:37;1.87;;;1.03;;
15820;SDS011;8011;51.650;7.240;2022-10-16T08:54:05;2.40;;;1.20;;
15820;SDS011;8011;51.650;7.240;2022-10-16T08:56:35;3.53;;;1.30;;
15820;SDS011;8011;51.650;7.240;2022-10-16T08:59:01;4.90;;;1.33;;
15820;SDS011;8011;51.650;7.240;2022-10-16T09:01:36;3.07;;;1.20;;
15820;SDS011;8011;51.650;7.240;2022-10-16T09:04:33;2.43;;;1.40;;
15820;SDS011;8011;51.650;7.240;2022-10-16T09:18:01;3.00;;;1.20;;
15820;SDS011;8011;51.650;7.240;2022-10-16T09:20:38;3.07;;;1.30;;
15820;SDS011;8011;51.650;7.240;2022-10-16T09:23:16;2.90;;;1.30;;
15820;SDS011;8011;51.650;7.240;2022-10-16T09:25:52;3.27;;;0.93;;
15820;SDS011;8011;51.650;7.240;2022-10-16T09:28:20;2.80;;;1.80;;
15820;SDS011;8011;51.650;7.240;2022-10-16T09:30:46;3.40;;;1.63;;
15820;SDS011;8011;51.650;7.240;2022-10-16T09:33:14;2.23;;;1.13;;
15820;SDS011;8011;51.650;7.240;2022-10-16T09:35:45;2.27;;;1.30;;
15820;SDS011;8011;51.650;7.240;2022-10-16T09:38:27;4.63;;;1.63;;
15820;SDS011;8011;51.650;7.240;2022-10-16T09:40:54;2.20;;;1.50;;
15820;SDS011;8011;51.650;7.240;2022-10-16T09:43:26;3.47;;;1.33;;
15820;SDS011;8011;51.650;7.240;2022-10-16T09:48:30;5.93;;;1.87;;
15820;SDS011;8011;51.650;7.240;2022-10-16T09:51:27;2.70;;;2.07;;
15820;SDS011;8011;51.650;7.240;2022-10-16T09:56:33;3.40;;;1.60;;
15820;SDS011;8011;51.650;7.240;2022-10-16T10:01:44;3.80;;;1.97;;
15820;SDS011;8011;51.650;7.240;2022-10-16T10:04:16;2.67;;;2.23;;
15820;SDS011;8011;51.650;7.240;2022-10-16T10:06:46;4.23;;;2.30;;
15820;SDS011;8011;51.650;7.240;2022-10-16T10:19:36;3.03;;;1.50;;
15820;SDS011;8011;51.650;7.240;2022-10-16T10:22:22;1.83;;;1.60;;
15820;SDS011;8011;51.650;7.240;2022-10-16T10:27:22;2.80;;;1.70;;
15820;SDS011;8011;51.650;7.240;2022-10-16T10:33:14;5.03;;;1.40;;
15820;SDS011;8011;51.650;7.240;2022-10-16T10:46:19;4.57;;;1.40;;
15820;SDS011;8011;51.650;7.240;2022-10-16T10:49:09;3.23;;;1.60;;
15820;SDS011;8011;51.650;7.240;2022-10-16T10:54:50;4.47;;;1.50;;
15820;SDS011;8011;51.650;7.240;2022-10-16T11:00:17;1.40;;;1.10;;
15820;SDS011;8011;51.650;7.240;2022-10-16T11:11:05;2.90;;;1.57;;
15820;SDS011;8011;51.650;7.240;2022-10-16T11:13:58;2.83;;;1.63;;
15820;SDS011;8011;51.650;7.240;2022-10-16T11:17:29;2.93;;;1.70;;
15820;SDS011;8011;51.650;7.240;2022-10-16T11:19:41;1.90;;;1.53;;
15820;SDS011;8011;51.650;7.240;2022-10-16T11:22:36;1.73;;;1.53;;
15820;SDS011;8011;51.650;7.240;2022-10-16T11:25:32;2.87;;;2.03;;
15820;SDS011;8011;51.650;7.240;2022-10-16T11:28:03;3.50;;;2.20;;
15820;SDS011;8011;51.650;7.240;2022-10-16T11:30:47;3.97;;;2.20;;
15820;SDS011;8011;51.650;7.240;2022-10-16T11:38:47;2.53;;;2.00;;
15820;SDS011;8011;51.650;7.240;2022-10-16T11:44:14;3.80;;;2.10;;
15820;SDS011;8011;51.650;7.240;2022-10-16T11:49:40;2.97;;;1.57;;
15820;SDS011;8011;51.650;7.240;2022-10-16T11:52:12;2.27;;;1.20;;
15820;SDS011;8011;51.650;7.240;2022-10-16T11:55:04;1.20;;;1.10;;
15820;SDS011;8011;51.650;7.240;2022-10-16T11:57:39;1.10;;;1.00;;
15820;SDS011;8011;51.650;7.240;2022-10-16T12:00:25;2.00;;;1.03;;
15820;SDS011;8011;51.650;7.240;2022-10-16T12:03:11;1.00;;;0.83;;
15820;SDS011;8011;51.650;7.240;2022-10-16T12:08:28;1.07;;;0.83;;
15820;SDS011;8011;51.650;7.240;2022-10-16T12:11:03;1.93;;;0.87;;
15820;SDS011;8011;51.650;7.240;2022-10-16T12:13:45;2.03;;;0.80;;
15820;SDS011;8011;51.650;7.240;2022-10-16T12:18:43;2.17;;;0.97;;
15820;SDS011;8011;51.650;7.240;2022-10-16T12:21:10;2.03;;;1.00;;
15820;SDS011;8011;51.650;7.240;2022-10-16T12:23:53;2.70;;;1.20;;
15820;SDS011;8011;51.650;7.240;2022-10-16T12:26:31;3.00;;;1.30;;
15820;SDS011;8011;51.650;7.240;2022-10-16T12:30:00;2.63;;;1.13;;
15820;SDS011;8011;51.650;7.240;2022-10-16T12:32:05;2.03;;;0.83;;
15820;SDS011;8011;51.650;7.240;2022-10-16T12:34:51;2.50;;;1.20;;
15820;SDS011;8011;51.650;7.240;2022-10-16T12:37:24;2.27;;;1.23;;
15820;SDS011;8011;51.650;7.240;2022-10-16T12:40:11;2.10;;;1.10;;
15820;SDS011;8011;51.650;7.240;2022-10-16T12:42:57;2.20;;;1.10;;
15820;SDS011;8011;51.650;7.240;2022-10-16T12:45:27;3.20;;;1.10;;
15820;SDS011;8011;51.650;7.240;2022-10-16T12:47:58;2.87;;;1.00;;
15820;SDS011;8011;51.650;7.240;2022-10-16T12:50:36;2.40;;;1.20;;
15820;SDS011;8011;51.650;7.240;2022-10-16T12:53:17;4.23;;;1.00;;
15820;SDS011;8011;51.650;7.240;2022-10-16T13:01:32;2.37;;;1.00;;
15820;SDS011;8011;51.650;7.240;2022-10-16T13:10:11;1.50;;;1.00;;
15820;SDS011;8011;51.650;7.240;2022-10-16T13:20:42;1.50;;;0.73;;
15820;SDS011;8011;51.650;7.240;2022-10-16T13:23:38;2.47;;;1.20;;
15820;SDS011;8011;51.650;7.240;2022-10-16T13:28:51;2.53;;;0.97;;
15820;SDS011;8011;51.650;7.240;2022-10-16T13:31:20;1.93;;;0.90;;
15820;SDS011;8011;51.650;7.240;2022-10-16T13:33:58;1.33;;;0.67;;
15820;SDS011;8011;51.650;7.240;2022-10-16T13:41:34;1.20;;;0.87;;
15820;SDS011;8011;51.650;7.240;2022-10-16T13:44:00;1.77;;;0.90;;
15820;SDS011;8011;51.650;7.240;2022-10-16T13:46:26;2.30;;;1.10;;
15820;SDS011;8011;51.650;7.240;2022-10-16T13:48:59;1.87;;;0.97;;
15820;SDS011;8011;51.650;7.240;2022-10-16T13:51:26;1.77;;;0.93;;
15820;SDS011;8011;51.650;7.240;2022-10-16T13:53:53;1.67;;;1.10;;
15820;SDS011;8011;51.650;7.240;2022-10-16T13:56:22;2.40;;;1.00;;
15820;SDS011;8011;51.650;7.240;2022-10-16T13:59:00;1.57;;;0.90;;
15820;SDS011;8011;51.650;7.240;2022-10-16T14:01:28;2.57;;;1.00;;
15820;SDS011;8011;51.650;7.240;2022-10-16T14:04:15;4.73;;;0.90;;
15820;SDS011;8011;51.650;7.240;2022-10-16T14:06:42;2.10;;;1.10;;
15820;SDS011;8011;51.650;7.240;2022-10-16T14:11:59;1.53;;;0.90;;
15820;SDS011;8011;51.650;7.240;2022-10-16T14:14:32;1.97;;;1.17;;
15820;SDS011;8011;51.650;7.240;2022-10-16T14:17:05;1.17;;;0.97;;
15820;SDS011;8011;51.650;7.240;2022-10-16T14:19:31;2.03;;;1.13;;
15820;SDS011;8011;51.650;7.240;2022-10-16T14:21:57;6.27;;;1.07;;
15820;SDS011;8011;51.650;7.240;2022-10-16T14:24:26;1.60;;;0.93;;
15820;SDS011;8011;51.650;7.240;2022-10-16T14:26:57;1.43;;;1.03;;
15820;SDS011;8011;51.650;7.240;2022-10-16T14:29:24;1.80;;;0.70;;
15820;SDS011;8011;51.650;7.240;2022-10-16T14:36:56;1.33;;;0.70;;
15820;SDS011;8011;51.650;7.240;2022-10-16T14:39:32;0.87;;;0.77;;
15820;SDS011;8011;51.650;7.240;2022-10-16T14:41:58;3.23;;;0.80;;
15820;SDS011;8011;51.650;7.240;2022-10-16T14:44:28;3.57;;;0.90;;
15820;SDS011;8011;51.650;7.240;2022-10-16T14:46:57;1.30;;;0.70;;
15820;SDS011;8011;51.650;7.240;2022-10-16T14:49:24;3.63;;;1.07;;
15820;SDS011;8011;51.650;7.240;2022-10-16T14:51:51;1.80;;;0.80;;
15820;SDS011;8011;51.650;7.240;2022-10-16T14:54:17;2.30;;;0.70;;
15820;SDS011;8011;51.650;7.240;2022-10-16T14:56:54;1.23;;;0.70;;
15820;SDS011;8011;51.650;7.240;2022-10-16T14:59:27;2.43;;;0.70;;
15820;SDS011;8011;51.650;7.240;2022-10-16T15:02:00;1.30;;;0.70;;
15820;SDS011;8011;51.650;7.240;2022-10-16T15:04:41;1.20;;;0.60;;
15820;SDS011;8011;51.650;7.240;2022-10-16T15:07:07;2.47;;;0.80;;
15820;SDS011;8011;51.650;7.240;2022-10-16T15:09:33;1.37;;;0.60;;
15820;SDS011;8011;51.650;7.240;2022-10-16T15:11:58;1.50;;;0.70;;
15820;SDS011;8011;51.650;7.240;2022-10-16T15:14:24;1.90;;;0.60;;
15820;SDS011;8011;51.650;7.240;2022-10-16T15:16:50;4.27;;;0.70;;
15820;SDS011;8011;51.650;7.240;2022-10-16T15:21:44;1.60;;;0.90;;
15820;SDS011;8011;51.650;7.240;2022-10-16T15:24:11;3.93;;;0.70;;
15820;SDS011;8011;51.650;7.240;2022-10-16T15:26:38;1.97;;;0.90;;
15820;SDS011;8011;51.650;7.240;2022-10-16T15:29:04;2.63;;;1.03;;
15820;SDS011;8011;51.650;7.240;2022-10-16T15:31:30;1.70;;;1.10;;
15820;SDS011;8011;51.650;7.240;2022-10-16T15:33:56;1.87;;;1.10;;
15820;SDS011;8011;51.650;7.240;2022-10-16T15:36:33;3.03;;;1.30;;
15820;SDS011;8011;51.650;7.240;2022-10-16T15:39:02;2.90;;;1.13;;
15820;SDS011;8011;51.650;7.240;2022-10-16T15:41:28;1.90;;;0.90;;
15820;SDS011;8011;51.650;7.240;2022-10-16T15:43:54;1.90;;;0.90;;
15820;SDS011;8011;51.650;7.240;2022-10-16T15:46:20;1.57;;;0.77;;
15820;SDS011;8011;51.650;7.240;2022-10-16T15:48:48;2.23;;;0.80;;
15820;SDS011;8011;51.650;7.240;2022-10-16T15:51:14;1.47;;;0.90;;
15820;SDS011;8011;51.650;7.240;2022-10-16T15:53:40;4.23;;;1.10;;
15820;SDS011;8011;51.650;7.240;2022-10-16T15:56:06;2.10;;;0.90;;
15820;SDS011;8011;51.650;7.240;2022-10-16T15:58:33;2.13;;;1.00;;
15820;SDS011;8011;51.650;7.240;2022-10-16T16:01:01;3.73;;;1.80;;
15820;SDS011;8011;51.650;7.240;2022-10-16T16:03:28;5.53;;;1.60;;
15820;SDS011;8011;51.650;7.240;2022-10-16T16:05:55;1.47;;;1.00;;
15820;SDS011;8011;51.650;7.240;2022-10-16T16:08:21;5.93;;;1.10;;
15820;SDS011;8011;51.650;7.240;2022-10-16T16:11:00;2.60;;;1.10;;
15820;SDS011;8011;51.650;7.240;2022-10-16T16:13:27;2.17;;;1.00;;
15820;SDS011;8011;51.650;7.240;2022-10-16T16:15:52;1.30;;;0.83;;
15820;SDS011;8011;51.650;7.240;2022-10-16T16:18:18;2.73;;;1.10;;
15820;SDS011;8011;51.650;7.240;2022-10-16T16:20:44;1.50;;;0.97;;
15820;SDS011;8011;51.650;7.240;2022-10-16T16:23:10;2.87;;;1.10;;
15820;SDS011;8011;51.650;7.240;2022-10-16T16:25:35;5.03;;;1.10;;
15820;SDS011;8011;51.650;7.240;2022-10-16T16:28:01;2.10;;;1.57;;
15820;SDS011;8011;51.650;7.240;2022-10-16T16:30:27;2.40;;;1.23;;
15820;SDS011;8011;51.650;7.240;2022-10-16T16:32:52;4.27;;;0.90;;
15820;SDS011;8011;51.650;7.240;2022-10-16T16:35:18;1.80;;;1.10;;
15820;SDS011;8011;51.650;7.240;2022-10-16T16:37:43;3.07;;;1.53;;
15820;SDS011;8011;51.650;7.240;2022-10-16T16:40:09;3.43;;;1.40;;
15820;SDS011;8011;51.650;7.240;2022-10-16T16:42:36;2.47;;;1.30;;
15820;SDS011;8011;51.650;7.240;2022-10-16T16:45:02;2.43;;;1.30;;
15820;SDS011;8011;51.650;7.240;2022-10-16T16:47:28;3.30;;;1.60;;
15820;SDS011;8011;51.650;7.240;2022-10-16T16:49:53;11.27;;;1.97;;
15820;SDS011;8011;51.650;7.240;2022-10-16T16:52:19;2.57;;;1.40;;
15820;SDS011;8011;51.650;7.240;2022-10-16T16:54:44;2.97;;;1.30;;
15820;SDS011;8011;51.650;7.240;2022-10-16T16:57:16;2.17;;;1.50;;
15820;SDS011;8011;51.650;7.240;2022-10-16T16:59:45;3.60;;;1.37;;
15820;SDS011;8011;51.650;7.240;2022-10-16T17:02:11;3.33;;;1.30;;
15820;SDS011;8011;51.650;7.240;2022-10-16T17:04:37;2.17;;;1.40;;
15820;SDS011;8011;51.650;7.240;2022-10-16T17:07:02;2.87;;;1.47;;
15820;SDS011;8011;51.650;7.240;2022-10-16T17:09:28;3.60;;;1.50;;
15820;SDS011;8011;51.650;7.240;2022-10-16T17:11:53;1.40;;;1.30;;
15820;SDS011;8011;51.650;7.240;2022-10-16T17:14:19;3.70;;;2.10;;
15820;SDS011;8011;51.650;7.240;2022-10-16T17:16:45;2.50;;;1.70;;
15820;SDS011;8011;51.650;7.240;2022-10-16T17:19:16;3.03;;;1.50;;
15820;SDS011;8011;51.650;7.240;2022-10-16T17:21:43;3.47;;;1.50;;
15820;SDS011;8011;51.650;7.240;2022-10-16T17:24:09;4.07;;;1.70;;
15820;SDS011;8011;51.650;7.240;2022-10-16T17:26:35;3.37;;;1.73;;
15820;SDS011;8011;51.650;7.240;2022-10-16T17:29:05;3.70;;;1.60;;
15820;SDS011;8011;51.650;7.240;2022-10-16T17:31:32;2.70;;;1.40;;
15820;SDS011;8011;51.650;7.240;2022-10-16T17:34:00;1.63;;;1.17;;
15820;SDS011;8011;51.650;7.240;2022-10-16T17:36:27;3.43;;;1.87;;
15820;SDS011;8011;51.650;7.240;2022-10-16T17:38:57;4.77;;;2.10;;
15820;SDS011;8011;51.650;7.240;2022-10-16T17:41:25;4.27;;;2.80;;
15820;SDS011;8011;51.650;7.240;2022-10-16T17:43:51;4.67;;;3.20;;
15820;SDS011;8011;51.650;7.240;2022-10-16T17:46:18;4.63;;;1.80;;
15820;SDS011;8011;51.650;7.240;2022-10-16T17:48:46;3.93;;;1.90;;
15820;SDS011;8011;51.650;7.240;2022-10-16T17:51:15;3.23;;;1.67;;
15820;SDS011;8011;51.650;7.240;2022-10-16T17:53:42;2.40;;;1.50;;
15820;SDS011;8011;51.650;7.240;2022-10-16T17:56:12;2.93;;;1.27;;
15820;SDS011;8011;51.650;7.240;2022-10-16T17:58:39;2.50;;;1.77;;
15820;SDS011;8011;51.650;7.240;2022-10-16T18:01:16;1.53;;;1.33;;
15820;SDS011;8011;51.650;7.240;2022-10-16T18:03:52;2.70;;;1.70;;
15820;SDS011;8011;51.650;7.240;2022-10-16T18:06:19;5.43;;;2.70;;
15820;SDS011;8011;51.650;7.240;2022-10-16T18:08:45;5.30;;;3.20;;
15820;SDS011;8011;51.650;7.240;2022-10-16T18:11:11;4.03;;;3.00;;
15820;SDS011;8011;51.650;7.240;2022-10-16T18:13:36;5.23;;;3.03;;
15820;SDS011;8011;51.650;7.240;2022-10-16T18:16:10;4.07;;;3.30;;
15820;SDS011;8011;51.650;7.240;2022-10-16T18:18:39;6.30;;;3.60;;
15820;SDS011;8011;51.650;7.240;2022-10-16T18:21:07;11.57;;;4.80;;
15820;SDS011;8011;51.650;7.240;2022-10-16T18:23:35;8.77;;;4.50;;
15820;SDS011;8011;51.650;7.240;2022-10-16T18:26:02;6.67;;;4.10;;
15820;SDS011;8011;51.650;7.240;2022-10-16T18:28:29;5.80;;;4.23;;
15820;SDS011;8011;51.650;7.240;2022-10-16T18:33:23;4.63;;;2.80;;
15820;SDS011;8011;51.650;7.240;2022-10-16T18:35:49;5.47;;;2.90;;
15820;SDS011;8011;51.650;7.240;2022-10-16T18:38:15;5.27;;;2.50;;
15820;SDS011;8011;51.650;7.240;2022-10-16T18:40:41;4.07;;;2.40;;
15820;SDS011;8011;51.650;7.240;2022-10-16T18:43:07;3.27;;;2.40;;
15820;SDS011;8011;51.650;7.240;2022-10-16T18:45:33;3.07;;;2.20;;
15820;SDS011;8011;51.650;7.240;2022-10-16T18:47:59;3.77;;;2.40;;
15820;SDS011;8011;51.650;7.240;2022-10-16T18:50:24;3.57;;;2.37;;
15820;SDS011;8011;51.650;7.240;2022-10-16T18:52:50;3.07;;;2.00;;
15820;SDS011;8011;51.650;7.240;2022-10-16T18:55:16;3.97;;;2.30;;
15820;SDS011;8011;51.650;7.240;2022-10-16T18:57:42;2.73;;;2.13;;
15820;SDS011;8011;51.650;7.240;2022-10-16T19:00:07;5.37;;;2.30;;
15820;SDS011;8011;51.650;7.240;2022-10-16T19:02:34;2.97;;;2.10;;
15820;SDS011;8011;51.650;7.240;2022-10-16T19:04:59;2.87;;;2.20;;
15820;SDS011;8011;51.650;7.240;2022-10-16T19:07:26;2.93;;;1.60;;
15820;SDS011;8011;51.650;7.240;2022-10-16T19:09:51;2.53;;;1.90;;
15820;SDS011;8011;51.650;7.240;2022-10-16T19:12:17;3.87;;;1.80;;
15820;SDS011;8011;51.650;7.240;2022-10-16T19:14:43;4.40;;;2.23;;
15820;SDS011;8011;51.650;7.240;2022-10-16T19:17:11;3.67;;;1.70;;
15820;SDS011;8011;51.650;7.240;2022-10-16T19:19:37;3.20;;;2.20;;
15820;SDS011;8011;51.650;7.240;2022-10-16T19:22:03;2.27;;;2.07;;
15820;SDS011;8011;51.650;7.240;2022-10-16T19:24:47;3.60;;;2.00;;
15820;SDS011;8011;51.650;7.240;2022-10-16T19:27:13;2.20;;;1.90;;
15820;SDS011;8011;51.650;7.240;2022-10-16T19:29:39;3.37;;;1.80;;
15820;SDS011;8011;51.650;7.240;2022-10-16T19:32:05;4.20;;;2.40;;
15820;SDS011;8011;51.650;7.240;2022-10-16T19:34:31;3.70;;;2.63;;
15820;SDS011;8011;51.650;7.240;2022-10-16T19:36:56;5.07;;;3.03;;
15820;SDS011;8011;51.650;7.240;2022-10-16T19:39:22;7.43;;;4.00;;
15820;SDS011;8011;51.650;7.240;2022-10-16T19:41:49;4.60;;;3.50;;
15820;SDS011;8011;51.650;7.240;2022-10-16T19:44:15;4.80;;;3.63;;
15820;SDS011;8011;51.650;7.240;2022-10-16T19:46:42;6.67;;;3.83;;
15820;SDS011;8011;51.650;7.240;2022-10-16T19:49:09;7.47;;;5.17;;
15820;SDS011;8011;51.650;7.240;2022-10-16T19:51:37;5.73;;;4.03;;
15820;SDS011;8011;51.650;7.240;2022-10-16T19:54:05;7.47;;;3.90;;
15820;SDS011;8011;51.650;7.240;2022-10-16T19:56:32;6.17;;;4.50;;
15820;SDS011;8011;51.650;7.240;2022-10-16T19:58:59;6.53;;;4.03;;
15820;SDS011;8011;51.650;7.240;2022-10-16T20:01:26;6.33;;;4.33;;
15820;SDS011;8011;51.650;7.240;2022-10-16T20:03:53;4.77;;;3.50;;
15820;SDS011;8011;51.650;7.240;2022-10-16T20:06:19;8.40;;;4.30;;
15820;SDS011;8011;51.650;7.240;2022-10-16T20:08:46;5.47;;;4.43;;
15820;SDS011;8011;51.650;7.240;2022-10-16T20:11:17;5.53;;;4.60;;
15820;SDS011;8011;51.650;7.240;2022-10-16T20:13:45;4.97;;;3.80;;